sensor_id;sensor_type;location;lat;lon;timestamp;pressure;altitude;pressure_sealevel;temperature;humidity
39954;BME280;25631;51.516;-0.470;2022-12-07T00:01:32;102134.43;;;2.47;40.20
39954;BME280;25631;51.516;-0.470;2022-12-07T00:04:12;102133.90;;;2.82;40.21
39954;BME280;25631;51.516;-0.470;2022-12-07T00:06:52;102135.83;;;2.74;40.30
39954;BME280;25631;51.516;-0.470;2022-12-07T00:09:28;102134.29;;;2.49;40.29
39954;BME280;25631;51.516;-0.470;2022-12-07T00:12:05;102134.33;;;2.71;40.31
39954;BME280;25631;51.516;-0.470;2022-12-07T00:14:41;102131.55;;;2.71;40.30
39954;BME280;25631;51.516;-0.470;2022-12-07T00:17:18;102131.40;;;2.62;40.30
39954;BME280;25631;51.516;-0.470;2022-12-07T00:19:55;102130.43;;;2.54;40.26
39954;BME280;25631;51.516;-0.470;2022-12-07T00:22:31;102133.50;;;2.43;40.21
39954;BME280;25631;51.516;-0.470;2022-12-07T00:25:08;102132.31;;;2.46;40.15
39954;BME280;25631;51.516;-0.470;2022-12-07T00:27:44;102131.93;;;2.80;40.13
39954;BME280;25631;51.516;-0.470;2022-12-07T00:30:21;102129.61;;;2.52;40.12
39954;BME280;25631;51.516;-0.470;2022-12-07T00:32:58;102130.68;;;2.78;40.19
39954;BME280;25631;51.516;-0.470;2022-12-07T00:35:34;102130.34;;;2.38;40.15
39954;BME280;25631;51.516;-0.470;2022-12-07T00:38:10;102128.81;;;2.72;40.15
39954;BME280;25631;51.516;-0.470;2022-12-07T00:40:55;102129.32;;;2.54;40.21
39954;BME280;25631;51.516;-0.470;2022-12-07T00:43:32;102132.09;;;2.40;40.28
39954;BME280;25631;51.516;-0.470;2022-12-07T00:46:09;102134.23;;;2.35;40.34
39954;BME280;25631;51.516;-0.470;2022-12-07T00:48:47;102134.08;;;2.55;40.25
39954;BME280;25631;51.516;-0.470;2022-12-07T00:51:25;102128.40;;;2.55;40.33
39954;BME280;25631;51.516;-0.470;2022-12-07T00:54:01;102123.31;;;2.53;40.43
39954;BME280;25631;51.516;-0.470;2022-12-07T00:56:38;102125.84;;;2.44;40.47
39954;BME280;25631;51.516;-0.470;2022-12-07T00:59:14;102124.05;;;2.41;40.54
39954;BME280;25631;51.516;-0.470;2022-12-07T01:01:51;102122.96;;;2.39;40.69
39954;BME280;25631;51.516;-0.470;2022-12-07T01:04:28;102123.86;;;2.50;40.75
39954;BME280;25631;51.516;-0.470;2022-12-07T01:07:04;102124.06;;;2.51;40.80
39954;BME280;25631;51.516;-0.470;2022-12-07T01:09:40;102124.11;;;2.80;40.82
39954;BME280;25631;51.516;-0.470;2022-12-07T01:12:17;102119.22;;;2.55;40.89
39954;BME280;25631;51.516;-0.470;2022-12-07T01:14:54;102123.56;;;2.42;41.02
39954;BME280;25631;51.516;-0.470;2022-12-07T01:17:31;102121.89;;;2.39;41.05
39954;BME280;25631;51.516;-0.470;2022-12-07T01:20:08;102118.44;;;2.39;41.08
39954;BME280;25631;51.516;-0.470;2022-12-07T01:22:45;102114.15;;;2.40;41.04
39954;BME280;25631;51.516;-0.470;2022-12-07T01:25:21;102114.85;;;2.31;41.12
39954;BME280;25631;51.516;-0.470;2022-12-07T01:27:58;102116.61;;;2.37;41.15
39954;BME280;25631;51.516;-0.470;2022-12-07T01:30:34;102116.98;;;2.12;41.20
39954;BME280;25631;51.516;-0.470;2022-12-07T01:33:11;102113.18;;;2.03;41.17
39954;BME280;25631;51.516;-0.470;2022-12-07T01:35:47;102111.36;;;2.24;41.21
39954;BME280;25631;51.516;-0.470;2022-12-07T01:38:24;102110.53;;;2.45;41.20
39954;BME280;25631;51.516;-0.470;2022-12-07T01:41:01;102109.91;;;2.03;41.23
39954;BME280;25631;51.516;-0.470;2022-12-07T01:44:10;102111.31;;;2.34;41.17
39954;BME280;25631;51.516;-0.470;2022-12-07T01:46:48;102116.75;;;2.20;41.17
39954;BME280;25631;51.516;-0.470;2022-12-07T01:49:29;102119.45;;;2.39;41.17
39954;BME280;25631;51.516;-0.470;2022-12-07T01:52:14;102120.71;;;2.27;41.18
39954;BME280;25631;51.516;-0.470;2022-12-07T01:54:56;102123.73;;;2.21;41.19
39954;BME280;25631;51.516;-0.470;2022-12-07T01:57:36;102121.34;;;2.06;41.24
39954;BME280;25631;51.516;-0.470;2022-12-07T02:00:15;102118.95;;;2.15;41.22
39954;BME280;25631;51.516;-0.470;2022-12-07T02:02:57;102117.06;;;2.19;41.17
39954;BME280;25631;51.516;-0.470;2022-12-07T02:05:38;102119.65;;;2.31;41.19
39954;BME280;25631;51.516;-0.470;2022-12-07T02:08:16;102121.25;;;2.20;41.18
39954;BME280;25631;51.516;-0.470;2022-12-07T02:10:54;102117.01;;;1.99;41.22
39954;BME280;25631;51.516;-0.470;2022-12-07T02:13:33;102116.81;;;2.23;41.13
39954;BME280;25631;51.516;-0.470;2022-12-07T02:16:20;102116.39;;;2.22;41.08
39954;BME280;25631;51.516;-0.470;2022-12-07T02:19:21;102112.75;;;2.22;41.01
39954;BME280;25631;51.516;-0.470;2022-12-07T02:22:14;102111.97;;;2.27;40.98
39954;BME280;25631;51.516;-0.470;2022-12-07T02:24:57;102112.85;;;2.12;40.98
39954;BME280;25631;51.516;-0.470;2022-12-07T02:27:46;102112.31;;;2.05;41.09
39954;BME280;25631;51.516;-0.470;2022-12-07T02:30:30;102108.66;;;2.02;41.12
39954;BME280;25631;51.516;-0.470;2022-12-07T02:33:13;102109.57;;;2.03;41.17
39954;BME280;25631;51.516;-0.470;2022-12-07T02:35:54;102113.93;;;2.03;41.15
39954;BME280;25631;51.516;-0.470;2022-12-07T02:38:37;102113.24;;;2.00;41.22
39954;BME280;25631;51.516;-0.470;2022-12-07T02:41:19;102111.30;;;2.22;41.27
39954;BME280;25631;51.516;-0.470;2022-12-07T02:44:00;102105.55;;;1.97;41.37
39954;BME280;25631;51.516;-0.470;2022-12-07T02:46:41;102103.72;;;1.98;41.44
39954;BME280;25631;51.516;-0.470;2022-12-07T02:49:19;102103.85;;;2.00;41.48
39954;BME280;25631;51.516;-0.470;2022-12-07T02:51:59;102105.37;;;1.87;41.50
39954;BME280;25631;51.516;-0.470;2022-12-07T02:54:35;102107.09;;;2.11;41.57
39954;BME280;25631;51.516;-0.470;2022-12-07T02:57:21;102108.72;;;2.09;41.74
39954;BME280;25631;51.516;-0.470;2022-12-07T03:00:07;102101.51;;;2.11;41.74
39954;BME280;25631;51.516;-0.470;2022-12-07T03:02:52;102099.30;;;2.15;41.81
39954;BME280;25631;51.516;-0.470;2022-12-07T03:05:42;102097.38;;;2.28;41.85
39954;BME280;25631;51.516;-0.470;2022-12-07T03:08:25;102096.69;;;2.24;41.82
39954;BME280;25631;51.516;-0.470;2022-12-07T03:11:09;102092.74;;;2.27;41.90
39954;BME280;25631;51.516;-0.470;2022-12-07T03:13:53;102085.20;;;2.34;41.87
39954;BME280;25631;51.516;-0.470;2022-12-07T03:16:36;102086.27;;;2.43;41.85
39954;BME280;25631;51.516;-0.470;2022-12-07T03:19:19;102087.07;;;2.28;41.77
39954;BME280;25631;51.516;-0.470;2022-12-07T03:21:58;102084.27;;;2.42;41.70
39954;BME280;25631;51.516;-0.470;2022-12-07T03:24:43;102077.90;;;2.26;41.71
39954;BME280;25631;51.516;-0.470;2022-12-07T03:27:23;102078.83;;;2.39;41.69
39954;BME280;25631;51.516;-0.470;2022-12-07T03:30:04;102078.55;;;2.36;41.70
39954;BME280;25631;51.516;-0.470;2022-12-07T03:32:44;102078.37;;;2.27;41.74
39954;BME280;25631;51.516;-0.470;2022-12-07T03:35:24;102079.57;;;2.11;41.71
39954;BME280;25631;51.516;-0.470;2022-12-07T03:38:07;102078.76;;;2.41;41.72
39954;BME280;25631;51.516;-0.470;2022-12-07T03:40:49;102077.04;;;2.14;41.70
39954;BME280;25631;51.516;-0.470;2022-12-07T03:43:29;102076.29;;;2.36;41.73
39954;BME280;25631;51.516;-0.470;2022-12-07T03:46:14;102076.72;;;2.50;41.66
39954;BME280;25631;51.516;-0.470;2022-12-07T03:48:59;102074.07;;;2.40;41.62
39954;BME280;25631;51.516;-0.470;2022-12-07T03:51:42;102072.07;;;2.34;41.58
39954;BME280;25631;51.516;-0.470;2022-12-07T03:54:24;102071.80;;;2.47;41.51
39954;BME280;25631;51.516;-0.470;2022-12-07T03:57:03;102069.13;;;2.35;41.55
39954;BME280;25631;51.516;-0.470;2022-12-07T03:59:41;102068.75;;;2.35;41.50
39954;BME280;25631;51.516;-0.470;2022-12-07T04:02:19;102068.58;;;2.18;41.53
39954;BME280;25631;51.516;-0.470;2022-12-07T04:04:56;102064.64;;;2.24;41.52
39954;BME280;25631;51.516;-0.470;2022-12-07T04:07:32;102064.98;;;2.09;41.55
39954;BME280;25631;51.516;-0.470;2022-12-07T04:10:10;102061.94;;;2.34;41.60
39954;BME280;25631;51.516;-0.470;2022-12-07T04:12:47;102063.82;;;2.10;41.60
39954;BME280;25631;51.516;-0.470;2022-12-07T04:15:23;102062.74;;;2.07;41.58
39954;BME280;25631;51.516;-0.470;2022-12-07T04:17:59;102063.07;;;1.94;41.57
39954;BME280;25631;51.516;-0.470;2022-12-07T04:20:36;102063.25;;;2.15;41.52
39954;BME280;25631;51.516;-0.470;2022-12-07T04:23:12;102062.23;;;2.09;41.47
39954;BME280;25631;51.516;-0.470;2022-12-07T04:25:49;102072.63;;;1.93;41.53
39954;BME280;25631;51.516;-0.470;2022-12-07T04:28:25;102068.29;;;1.87;41.52
39954;BME280;25631;51.516;-0.470;2022-12-07T04:31:02;102064.53;;;2.04;41.57
39954;BME280;25631;51.516;-0.470;2022-12-07T04:33:38;102068.40;;;1.92;41.62
39954;BME280;25631;51.516;-0.470;2022-12-07T04:36:15;102067.56;;;1.80;41.62
39954;BME280;25631;51.516;-0.470;2022-12-07T04:38:53;102066.51;;;1.79;41.67
39954;BME280;25631;51.516;-0.470;2022-12-07T04:41:30;102068.70;;;1.86;41.72
39954;BME280;25631;51.516;-0.470;2022-12-07T04:44:14;102071.93;;;1.83;41.81
39954;BME280;25631;51.516;-0.470;2022-12-07T04:46:51;102071.06;;;1.91;41.91
39954;BME280;25631;51.516;-0.470;2022-12-07T04:49:28;102070.60;;;1.72;41.93
39954;BME280;25631;51.516;-0.470;2022-12-07T04:52:04;102072.74;;;1.89;41.95
39954;BME280;25631;51.516;-0.470;2022-12-07T04:54:41;102071.24;;;1.92;41.91
39954;BME280;25631;51.516;-0.470;2022-12-07T04:57:17;102066.57;;;1.96;41.92
39954;BME280;25631;51.516;-0.470;2022-12-07T04:59:54;102066.27;;;1.99;41.90
39954;BME280;25631;51.516;-0.470;2022-12-07T05:02:30;102070.25;;;2.20;41.85
39954;BME280;25631;51.516;-0.470;2022-12-07T05:05:07;102065.71;;;2.10;41.84
39954;BME280;25631;51.516;-0.470;2022-12-07T05:07:44;102069.77;;;2.10;41.82
39954;BME280;25631;51.516;-0.470;2022-12-07T05:10:21;102068.96;;;2.19;41.78
39954;BME280;25631;51.516;-0.470;2022-12-07T05:12:57;102065.12;;;1.95;41.73
39954;BME280;25631;51.516;-0.470;2022-12-07T05:15:34;102062.15;;;1.93;41.67
39954;BME280;25631;51.516;-0.470;2022-12-07T05:18:10;102064.84;;;2.03;41.66
39954;BME280;25631;51.516;-0.470;2022-12-07T05:20:47;102054.61;;;1.92;41.64
39954;BME280;25631;51.516;-0.470;2022-12-07T05:23:23;102064.13;;;1.91;41.63
39954;BME280;25631;51.516;-0.470;2022-12-07T05:25:59;102064.19;;;1.70;41.61
39954;BME280;25631;51.516;-0.470;2022-12-07T05:28:36;102055.80;;;1.79;41.63
39954;BME280;25631;51.516;-0.470;2022-12-07T05:31:12;102063.20;;;1.96;41.60
39954;BME280;25631;51.516;-0.470;2022-12-07T05:33:49;102057.64;;;1.73;41.56
39954;BME280;25631;51.516;-0.470;2022-12-07T05:36:26;102058.70;;;1.72;41.46
39954;BME280;25631;51.516;-0.470;2022-12-07T05:39:03;102062.05;;;1.87;41.38
39954;BME280;25631;51.516;-0.470;2022-12-07T05:41:39;102056.21;;;1.90;41.36
39954;BME280;25631;51.516;-0.470;2022-12-07T05:44:16;102059.37;;;1.62;41.31
39954;BME280;25631;51.516;-0.470;2022-12-07T05:46:52;102055.18;;;1.52;41.32
39954;BME280;25631;51.516;-0.470;2022-12-07T05:49:29;102054.42;;;1.49;41.25
39954;BME280;25631;51.516;-0.470;2022-12-07T05:52:06;102055.89;;;1.55;41.21
39954;BME280;25631;51.516;-0.470;2022-12-07T05:54:43;102051.29;;;1.59;41.21
39954;BME280;25631;51.516;-0.470;2022-12-07T05:57:19;102053.57;;;1.70;41.20
39954;BME280;25631;51.516;-0.470;2022-12-07T05:59:56;102052.84;;;1.61;41.25
39954;BME280;25631;51.516;-0.470;2022-12-07T06:02:32;102052.57;;;1.10;41.21
39954;BME280;25631;51.516;-0.470;2022-12-07T06:05:09;102054.48;;;1.45;41.22
39954;BME280;25631;51.516;-0.470;2022-12-07T06:07:45;102057.60;;;1.88;41.21
39954;BME280;25631;51.516;-0.470;2022-12-07T06:10:22;102054.55;;;1.45;41.36
39954;BME280;25631;51.516;-0.470;2022-12-07T06:12:58;102055.06;;;1.47;41.42
39954;BME280;25631;51.516;-0.470;2022-12-07T06:15:35;102053.58;;;1.48;41.62
39954;BME280;25631;51.516;-0.470;2022-12-07T06:18:12;102056.93;;;1.26;41.78
39954;BME280;25631;51.516;-0.470;2022-12-07T06:20:48;102062.14;;;1.35;41.78
39954;BME280;25631;51.516;-0.470;2022-12-07T06:23:25;102057.89;;;1.42;42.01
39954;BME280;25631;51.516;-0.470;2022-12-07T06:26:01;102059.54;;;1.24;42.16
39954;BME280;25631;51.516;-0.470;2022-12-07T06:28:38;102062.43;;;1.39;42.08
39954;BME280;25631;51.516;-0.470;2022-12-07T06:31:14;102055.98;;;1.52;42.10
39954;BME280;25631;51.516;-0.470;2022-12-07T06:33:51;102061.43;;;1.53;42.05
39954;BME280;25631;51.516;-0.470;2022-12-07T06:36:27;102059.82;;;1.23;42.11
39954;BME280;25631;51.516;-0.470;2022-12-07T06:39:05;102063.41;;;1.52;42.14
39954;BME280;25631;51.516;-0.470;2022-12-07T06:41:41;102062.87;;;1.39;42.17
39954;BME280;25631;51.516;-0.470;2022-12-07T06:44:18;102069.33;;;1.55;42.18
39954;BME280;25631;51.516;-0.470;2022-12-07T06:46:55;102070.82;;;1.53;42.09
39954;BME280;25631;51.516;-0.470;2022-12-07T06:49:32;102073.40;;;1.75;42.01
39954;BME280;25631;51.516;-0.470;2022-12-07T06:52:09;102076.10;;;1.53;41.93
39954;BME280;25631;51.516;-0.470;2022-12-07T06:54:45;102073.74;;;1.65;41.86
39954;BME280;25631;51.516;-0.470;2022-12-07T06:57:21;102068.20;;;1.82;41.78
39954;BME280;25631;51.516;-0.470;2022-12-07T06:59:58;102069.93;;;1.75;41.72
39954;BME280;25631;51.516;-0.470;2022-12-07T07:02:34;102071.94;;;1.70;41.60
39954;BME280;25631;51.516;-0.470;2022-12-07T07:05:11;102071.95;;;1.95;41.50
39954;BME280;25631;51.516;-0.470;2022-12-07T07:07:48;102077.28;;;1.93;41.44
39954;BME280;25631;51.516;-0.470;2022-12-07T07:10:25;102070.75;;;1.77;41.31
39954;BME280;25631;51.516;-0.470;2022-12-07T07:13:02;102070.66;;;1.82;41.30
39954;BME280;25631;51.516;-0.470;2022-12-07T07:15:38;102073.96;;;1.81;41.28
39954;BME280;25631;51.516;-0.470;2022-12-07T07:18:15;102069.81;;;1.68;41.25
39954;BME280;25631;51.516;-0.470;2022-12-07T07:20:52;102070.83;;;1.84;41.17
39954;BME280;25631;51.516;-0.470;2022-12-07T07:23:29;102074.60;;;1.61;41.01
39954;BME280;25631;51.516;-0.470;2022-12-07T07:26:06;102071.28;;;1.71;41.02
39954;BME280;25631;51.516;-0.470;2022-12-07T07:28:43;102070.75;;;1.22;41.00
39954;BME280;25631;51.516;-0.470;2022-12-07T07:31:19;102067.45;;;1.52;40.96
39954;BME280;25631;51.516;-0.470;2022-12-07T07:33:55;102071.43;;;1.60;41.10
39954;BME280;25631;51.516;-0.470;2022-12-07T07:36:32;102068.32;;;1.60;41.15
39954;BME280;25631;51.516;-0.470;2022-12-07T07:39:09;102069.97;;;1.43;41.21
39954;BME280;25631;51.516;-0.470;2022-12-07T07:41:47;102074.13;;;1.37;41.21
39954;BME280;25631;51.516;-0.470;2022-12-07T07:44:23;102076.11;;;1.80;41.22
39954;BME280;25631;51.516;-0.470;2022-12-07T07:47:00;102078.17;;;1.48;41.16
39954;BME280;25631;51.516;-0.470;2022-12-07T07:49:37;102078.40;;;1.44;41.17
39954;BME280;25631;51.516;-0.470;2022-12-07T07:52:13;102074.67;;;1.53;41.02
39954;BME280;25631;51.516;-0.470;2022-12-07T07:54:49;102077.34;;;1.58;41.01
39954;BME280;25631;51.516;-0.470;2022-12-07T07:57:26;102075.62;;;1.45;41.13
39954;BME280;25631;51.516;-0.470;2022-12-07T08:00:04;102072.22;;;1.30;41.09
39954;BME280;25631;51.516;-0.470;2022-12-07T08:02:42;102072.64;;;1.28;41.13
39954;BME280;25631;51.516;-0.470;2022-12-07T08:05:19;102076.23;;;1.47;41.15
39954;BME280;25631;51.516;-0.470;2022-12-07T08:07:57;102077.35;;;1.40;41.19
39954;BME280;25631;51.516;-0.470;2022-12-07T08:10:34;102079.09;;;1.41;41.22
39954;BME280;25631;51.516;-0.470;2022-12-07T08:13:10;102080.03;;;1.40;41.23
39954;BME280;25631;51.516;-0.470;2022-12-07T08:15:48;102085.97;;;1.27;41.30
39954;BME280;25631;51.516;-0.470;2022-12-07T08:18:24;102084.57;;;1.19;41.28
39954;BME280;25631;51.516;-0.470;2022-12-07T08:21:01;102080.07;;;1.30;41.39
39954;BME280;25631;51.516;-0.470;2022-12-07T08:23:38;102085.64;;;1.33;41.40
39954;BME280;25631;51.516;-0.470;2022-12-07T08:26:15;102084.12;;;1.25;41.46
39954;BME280;25631;51.516;-0.470;2022-12-07T08:28:53;102084.94;;;1.37;41.38
39954;BME280;25631;51.516;-0.470;2022-12-07T08:31:29;102081.67;;;0.99;41.34
39954;BME280;25631;51.516;-0.470;2022-12-07T08:34:06;102084.78;;;1.24;41.25
39954;BME280;25631;51.516;-0.470;2022-12-07T08:36:43;102083.98;;;1.03;41.30
39954;BME280;25631;51.516;-0.470;2022-12-07T08:39:19;102081.92;;;1.33;41.28
39954;BME280;25631;51.516;-0.470;2022-12-07T08:41:56;102082.07;;;1.26;41.25
39954;BME280;25631;51.516;-0.470;2022-12-07T08:44:32;102081.21;;;1.13;41.24
39954;BME280;25631;51.516;-0.470;2022-12-07T08:47:10;102075.96;;;1.21;41.31
39954;BME280;25631;51.516;-0.470;2022-12-07T08:49:49;102075.64;;;1.26;41.24
39954;BME280;25631;51.516;-0.470;2022-12-07T08:52:26;102073.72;;;1.21;41.25
39954;BME280;25631;51.516;-0.470;2022-12-07T08:55:04;102073.00;;;1.14;41.35
39954;BME280;25631;51.516;-0.470;2022-12-07T08:57:41;102073.07;;;1.24;41.40
39954;BME280;25631;51.516;-0.470;2022-12-07T09:00:18;102070.16;;;0.99;41.52
39954;BME280;25631;51.516;-0.470;2022-12-07T09:02:54;102069.50;;;1.41;41.53
39954;BME280;25631;51.516;-0.470;2022-12-07T09:05:32;102067.23;;;1.29;41.54
39954;BME280;25631;51.516;-0.470;2022-12-07T09:08:09;102059.13;;;1.36;41.59
39954;BME280;25631;51.516;-0.470;2022-12-07T09:10:46;102061.09;;;1.36;41.60
39954;BME280;25631;51.516;-0.470;2022-12-07T09:13:22;102058.41;;;1.67;41.58
39954;BME280;25631;51.516;-0.470;2022-12-07T09:15:59;102053.47;;;1.35;41.60
39954;BME280;25631;51.516;-0.470;2022-12-07T09:18:35;102058.94;;;1.29;41.55
39954;BME280;25631;51.516;-0.470;2022-12-07T09:21:12;102057.03;;;1.21;41.48
39954;BME280;25631;51.516;-0.470;2022-12-07T09:23:48;102058.09;;;1.22;41.40
39954;BME280;25631;51.516;-0.470;2022-12-07T09:26:25;102056.27;;;1.54;41.33
39954;BME280;25631;51.516;-0.470;2022-12-07T09:29:02;102053.27;;;1.77;41.31
39954;BME280;25631;51.516;-0.470;2022-12-07T09:31:39;102057.88;;;1.48;41.17
39954;BME280;25631;51.516;-0.470;2022-12-07T09:34:15;102057.91;;;1.59;41.13
39954;BME280;25631;51.516;-0.470;2022-12-07T09:36:52;102049.55;;;1.60;41.07
39954;BME280;25631;51.516;-0.470;2022-12-07T09:39:29;102046.96;;;1.51;40.93
39954;BME280;25631;51.516;-0.470;2022-12-07T09:42:07;102046.34;;;1.42;40.81
39954;BME280;25631;51.516;-0.470;2022-12-07T09:44:43;102040.28;;;1.11;40.84
39954;BME280;25631;51.516;-0.470;2022-12-07T09:47:20;102044.97;;;1.58;40.73
39954;BME280;25631;51.516;-0.470;2022-12-07T09:50:03;102047.27;;;1.14;40.72
39954;BME280;25631;51.516;-0.470;2022-12-07T09:52:42;102048.73;;;1.55;40.83
39954;BME280;25631;51.516;-0.470;2022-12-07T09:55:22;102050.42;;;1.71;40.75
39954;BME280;25631;51.516;-0.470;2022-12-07T09:58:00;102050.93;;;1.42;40.69
39954;BME280;25631;51.516;-0.470;2022-12-07T10:00:37;102052.34;;;1.34;40.76
39954;BME280;25631;51.516;-0.470;2022-12-07T10:03:13;102056.00;;;1.27;40.78
39954;BME280;25631;51.516;-0.470;2022-12-07T10:05:51;102055.87;;;1.27;40.84
39954;BME280;25631;51.516;-0.470;2022-12-07T10:08:28;102053.05;;;1.39;40.87
39954;BME280;25631;51.516;-0.470;2022-12-07T10:11:06;102053.22;;;1.52;40.84
39954;BME280;25631;51.516;-0.470;2022-12-07T10:13:44;102051.09;;;1.62;40.79
39954;BME280;25631;51.516;-0.470;2022-12-07T10:16:37;102051.34;;;1.75;40.86
39954;BME280;25631;51.516;-0.470;2022-12-07T10:19:28;102045.61;;;1.72;40.86
39954;BME280;25631;51.516;-0.470;2022-12-07T10:22:11;102041.57;;;1.68;40.75
39954;BME280;25631;51.516;-0.470;2022-12-07T10:24:47;102035.27;;;1.64;40.68
39954;BME280;25631;51.516;-0.470;2022-12-07T10:27:29;102026.31;;;1.72;40.56
39954;BME280;25631;51.516;-0.470;2022-12-07T10:30:12;102016.54;;;1.89;40.32
39954;BME280;25631;51.516;-0.470;2022-12-07T10:32:50;102017.89;;;1.87;40.48
39954;BME280;25631;51.516;-0.470;2022-12-07T10:35:28;102015.14;;;1.68;40.46
39954;BME280;25631;51.516;-0.470;2022-12-07T10:38:16;102014.63;;;1.81;40.49
39954;BME280;25631;51.516;-0.470;2022-12-07T10:41:03;102007.92;;;1.80;40.51
39954;BME280;25631;51.516;-0.470;2022-12-07T10:43:48;102007.29;;;2.01;40.37
39954;BME280;25631;51.516;-0.470;2022-12-07T10:46:38;102000.40;;;1.86;40.22
39954;BME280;25631;51.516;-0.470;2022-12-07T10:51:54;101998.73;;;1.96;40.04
39954;BME280;25631;51.516;-0.470;2022-12-07T10:54:40;101994.89;;;2.20;39.98
39954;BME280;25631;51.516;-0.470;2022-12-07T10:57:33;101991.90;;;2.04;39.89
39954;BME280;25631;51.516;-0.470;2022-12-07T11:00:16;101989.61;;;2.00;39.84
39954;BME280;25631;51.516;-0.470;2022-12-07T11:05:24;101986.72;;;1.93;39.73
39954;BME280;25631;51.516;-0.470;2022-12-07T11:08:09;101987.63;;;2.09;39.80
39954;BME280;25631;51.516;-0.470;2022-12-07T11:10:54;101982.26;;;2.21;39.89
39954;BME280;25631;51.516;-0.470;2022-12-07T11:13:39;101985.44;;;2.28;39.75
39954;BME280;25631;51.516;-0.470;2022-12-07T11:16:25;101979.18;;;2.34;39.80
39954;BME280;25631;51.516;-0.470;2022-12-07T11:19:15;101971.31;;;2.47;39.48
39954;BME280;25631;51.516;-0.470;2022-12-07T11:21:57;101966.51;;;2.20;39.53
39954;BME280;25631;51.516;-0.470;2022-12-07T11:24:42;101964.70;;;2.21;39.39
39954;BME280;25631;51.516;-0.470;2022-12-07T11:27:30;101962.58;;;2.37;39.33
39954;BME280;25631;51.516;-0.470;2022-12-07T11:30:16;101961.78;;;2.57;39.22
39954;BME280;25631;51.516;-0.470;2022-12-07T11:33:06;101959.64;;;2.31;39.31
39954;BME280;25631;51.516;-0.470;2022-12-07T11:35:53;101959.53;;;2.30;39.30
39954;BME280;25631;51.516;-0.470;2022-12-07T11:38:41;101960.59;;;2.58;39.30
39954;BME280;25631;51.516;-0.470;2022-12-07T11:41:23;101956.17;;;2.34;39.26
39954;BME280;25631;51.516;-0.470;2022-12-07T11:44:06;101951.21;;;2.69;39.38
39954;BME280;25631;51.516;-0.470;2022-12-07T11:46:47;101948.76;;;2.07;39.02
39954;BME280;25631;51.516;-0.470;2022-12-07T11:49:39;101940.89;;;2.35;38.93
39954;BME280;25631;51.516;-0.470;2022-12-07T11:52:22;101938.48;;;2.55;38.89
39954;BME280;25631;51.516;-0.470;2022-12-07T11:55:02;101934.14;;;2.96;38.80
39954;BME280;25631;51.516;-0.470;2022-12-07T11:57:44;101929.64;;;2.68;38.76
39954;BME280;25631;51.516;-0.470;2022-12-07T12:00:22;101930.50;;;2.84;38.95
39954;BME280;25631;51.516;-0.470;2022-12-07T12:03:03;101923.39;;;2.63;38.97
39954;BME280;25631;51.516;-0.470;2022-12-07T12:05:42;101918.67;;;2.44;38.78
39954;BME280;25631;51.516;-0.470;2022-12-07T12:08:23;101910.24;;;2.47;38.61
39954;BME280;25631;51.516;-0.470;2022-12-07T12:11:11;101908.64;;;2.78;38.53
39954;BME280;25631;51.516;-0.470;2022-12-07T12:14:03;101902.97;;;2.80;38.58
39954;BME280;25631;51.516;-0.470;2022-12-07T12:17:11;101894.08;;;2.51;38.59
39954;BME280;25631;51.516;-0.470;2022-12-07T12:20:03;101889.49;;;2.63;38.14
39954;BME280;25631;51.516;-0.470;2022-12-07T12:22:46;101888.13;;;2.69;38.16
39954;BME280;25631;51.516;-0.470;2022-12-07T12:25:27;101885.39;;;2.66;38.38
39954;BME280;25631;51.516;-0.470;2022-12-07T12:28:05;101879.35;;;3.04;38.26
39954;BME280;25631;51.516;-0.470;2022-12-07T12:30:41;101876.14;;;3.24;38.07
39954;BME280;25631;51.516;-0.470;2022-12-07T12:33:22;101873.41;;;3.32;37.88
39954;BME280;25631;51.516;-0.470;2022-12-07T12:36:43;101869.33;;;3.31;37.74
39954;BME280;25631;51.516;-0.470;2022-12-07T12:39:19;101868.48;;;3.44;37.90
39954;BME280;25631;51.516;-0.470;2022-12-07T12:41:59;101867.28;;;3.25;37.38
39954;BME280;25631;51.516;-0.470;2022-12-07T12:45:02;101866.29;;;3.69;37.36
39954;BME280;25631;51.516;-0.470;2022-12-07T12:47:43;101868.07;;;3.92;37.17
39954;BME280;25631;51.516;-0.470;2022-12-07T12:50:30;101860.23;;;3.55;37.11
39954;BME280;25631;51.516;-0.470;2022-12-07T12:53:21;101859.84;;;3.55;36.97
39954;BME280;25631;51.516;-0.470;2022-12-07T12:56:14;101856.69;;;3.90;36.82
39954;BME280;25631;51.516;-0.470;2022-12-07T12:59:30;101851.03;;;3.78;36.75
39954;BME280;25631;51.516;-0.470;2022-12-07T13:02:16;101849.54;;;4.00;36.46
39954;BME280;25631;51.516;-0.470;2022-12-07T13:04:57;101844.04;;;4.00;36.57
39954;BME280;25631;51.516;-0.470;2022-12-07T13:07:54;101841.98;;;3.92;36.38
39954;BME280;25631;51.516;-0.470;2022-12-07T13:10:38;101835.18;;;3.96;36.60
39954;BME280;25631;51.516;-0.470;2022-12-07T13:13:47;101828.73;;;4.21;36.62
39954;BME280;25631;51.516;-0.470;2022-12-07T13:16:41;101826.89;;;4.67;36.53
39954;BME280;25631;51.516;-0.470;2022-12-07T13:21:42;101819.46;;;4.63;35.57
39954;BME280;25631;51.516;-0.470;2022-12-07T13:24:19;101815.13;;;4.75;35.72
39954;BME280;25631;51.516;-0.470;2022-12-07T13:26:56;101811.49;;;4.74;36.06
39954;BME280;25631;51.516;-0.470;2022-12-07T13:29:36;101808.72;;;4.77;36.15
39954;BME280;25631;51.516;-0.470;2022-12-07T13:32:23;101799.46;;;4.84;36.09
39954;BME280;25631;51.516;-0.470;2022-12-07T13:35:00;101798.12;;;5.03;35.85
39954;BME280;25631;51.516;-0.470;2022-12-07T13:37:55;101797.05;;;5.03;36.05
39954;BME280;25631;51.516;-0.470;2022-12-07T13:40:32;101794.69;;;5.25;35.95
39954;BME280;25631;51.516;-0.470;2022-12-07T13:43:14;101790.03;;;4.93;34.92
39954;BME280;25631;51.516;-0.470;2022-12-07T13:45:56;101789.59;;;5.05;35.15
39954;BME280;25631;51.516;-0.470;2022-12-07T13:48:44;101783.92;;;4.93;35.32
39954;BME280;25631;51.516;-0.470;2022-12-07T13:51:23;101777.11;;;5.45;35.21
39954;BME280;25631;51.516;-0.470;2022-12-07T13:54:08;101773.09;;;5.43;34.65
39954;BME280;25631;51.516;-0.470;2022-12-07T13:56:49;101769.96;;;4.99;34.59
39954;BME280;25631;51.516;-0.470;2022-12-07T13:59:26;101766.57;;;5.09;34.34
39954;BME280;25631;51.516;-0.470;2022-12-07T14:02:16;101764.19;;;4.68;34.50
39954;BME280;25631;51.516;-0.470;2022-12-07T14:05:08;101760.23;;;5.13;34.66